createdAt,value
2023-04-15T00:01:41.740Z,7.60
2023-04-15T00:04:09.423Z,7.60
2023-04-15T00:06:37.990Z,7.50
2023-04-15T00:09:05.246Z,7.50
2023-04-15T00:11:32.235Z,7.40
2023-04-15T00:13:59.429Z,7.30
2023-04-15T00:16:26.781Z,7.30
2023-04-15T00:18:53.704Z,7.30
2023-04-15T00:21:21.576Z,7.20
2023-04-15T00:23:52.719Z,7.20
2023-04-15T00:26:20.923Z,7.10
2023-04-15T00:28:47.934Z,7.00
2023-04-15T00:31:15.688Z,6.90
2023-04-15T00:33:42.730Z,6.80
2023-04-15T00:36:10.060Z,6.80
2023-04-15T00:38:38.624Z,6.90
2023-04-15T00:41:05.879Z,6.80
2023-04-15T00:43:32.804Z,6.80
2023-04-15T00:46:01.027Z,6.80
2023-04-15T00:48:28.349Z,6.90
2023-04-15T00:50:55.282Z,6.90
2023-04-15T00:53:22.226Z,6.90
2023-04-15T00:55:49.572Z,6.90
2023-04-15T00:58:17.371Z,6.80
2023-04-15T01:00:44.694Z,6.80
2023-04-15T01:03:11.854Z,6.80
2023-04-15T01:05:39.394Z,6.80
2023-04-15T01:08:06.655Z,6.70
2023-04-15T01:10:33.948Z,6.70
2023-04-15T01:13:00.934Z,6.70
2023-04-15T01:15:27.858Z,6.80
2023-04-15T01:17:55.061Z,6.70
2023-04-15T01:20:22.404Z,6.60
2023-04-15T01:22:50.183Z,6.60
2023-04-15T01:25:26.467Z,6.60
2023-04-15T01:27:53.602Z,6.50
2023-04-15T01:30:23.766Z,6.40
2023-04-15T01:32:51.264Z,6.30
2023-04-15T01:35:18.382Z,6.30
2023-04-15T01:37:45.610Z,6.20
2023-04-15T01:40:13.964Z,6.20
2023-04-15T01:42:41.131Z,6.20
2023-04-15T01:45:08.955Z,6.10
2023-04-15T01:47:35.895Z,6.10
2023-04-15T01:50:02.836Z,6.00
2023-04-15T01:52:29.697Z,5.90
2023-04-15T01:54:56.595Z,5.80
2023-04-15T01:57:23.515Z,5.70
2023-04-15T01:59:50.694Z,5.50
2023-04-15T02:02:17.955Z,5.40
2023-04-15T02:04:45.481Z,5.30
2023-04-15T02:07:12.499Z,5.30
2023-04-15T02:09:39.895Z,5.20
2023-04-15T02:12:06.847Z,5.20
2023-04-15T02:14:33.739Z,5.20
2023-04-15T02:17:07.203Z,5.30
2023-04-15T02:19:35.703Z,5.40
2023-04-15T02:22:02.922Z,5.30
2023-04-15T02:24:31.273Z,5.40
2023-04-15T02:26:58.260Z,5.40
2023-04-15T02:29:25.359Z,5.40
2023-04-15T02:31:52.661Z,5.40
2023-04-15T02:34:19.624Z,5.40
2023-04-15T02:36:48.871Z,5.40
2023-04-15T02:39:16.977Z,5.40
2023-04-15T02:41:47.651Z,5.40
2023-04-15T02:44:14.649Z,5.50
2023-04-15T02:46:41.589Z,5.40
2023-04-15T02:49:08.746Z,5.40
2023-04-15T02:51:35.653Z,5.40
2023-04-15T02:54:02.552Z,5.30
2023-04-15T02:56:30.346Z,5.20
2023-04-15T02:58:57.495Z,5.10
2023-04-15T03:01:24.533Z,5.00
2023-04-15T03:03:51.622Z,5.00
2023-04-15T03:06:18.508Z,5.00
2023-04-15T03:08:46.885Z,5.00
2023-04-15T03:11:15.059Z,4.90
2023-04-15T03:13:43.367Z,4.80
2023-04-15T03:16:10.797Z,4.70
2023-04-15T03:18:37.923Z,4.70
2023-04-15T03:21:05.200Z,4.60
2023-04-15T03:23:32.402Z,4.50
2023-04-15T03:26:02.796Z,4.40
2023-04-15T03:28:30.463Z,4.40
2023-04-15T03:30:57.644Z,4.50
2023-04-15T03:33:25.059Z,4.40
2023-04-15T03:35:53.302Z,4.40
2023-04-15T03:38:20.236Z,4.40
2023-04-15T03:40:47.648Z,4.40
2023-04-15T03:43:14.646Z,4.40
2023-04-15T03:45:41.758Z,4.40
2023-04-15T03:48:17.409Z,4.40
2023-04-15T03:50:45.121Z,4.40
2023-04-15T03:53:12.338Z,4.50
2023-04-15T03:55:39.370Z,4.50
2023-04-15T03:58:06.632Z,4.60
2023-04-15T04:00:33.681Z,4.60
2023-04-15T04:03:00.679Z,4.60
2023-04-15T04:05:27.791Z,4.70
2023-04-15T04:07:54.693Z,4.80
2023-04-15T04:10:21.748Z,4.80
2023-04-15T04:12:48.671Z,4.70
2023-04-15T04:15:16.099Z,4.70
2023-04-15T04:17:43.147Z,4.70
2023-04-15T04:20:10.554Z,4.70
2023-04-15T04:22:39.854Z,4.70
2023-04-15T04:25:08.721Z,4.70
2023-04-15T04:27:36.008Z,4.80
2023-04-15T04:30:03.193Z,4.80
2023-04-15T04:32:30.474Z,4.80
2023-04-15T04:34:57.563Z,4.80
2023-04-15T04:37:24.825Z,4.80
2023-04-15T04:39:51.800Z,4.80
2023-04-15T04:42:18.726Z,4.90
2023-04-15T04:44:45.645Z,4.90
2023-04-15T04:47:12.668Z,4.80
2023-04-15T04:49:39.674Z,4.80
2023-04-15T04:52:06.818Z,4.80
2023-04-15T04:54:33.991Z,4.80
2023-04-15T04:57:00.953Z,4.80
2023-04-15T04:59:28.287Z,4.80
2023-04-15T05:01:55.538Z,4.80
2023-04-15T05:04:22.485Z,4.90
2023-04-15T05:06:49.457Z,4.90
2023-04-15T05:09:18.809Z,4.90
2023-04-15T05:11:45.816Z,4.90
2023-04-15T05:14:12.815Z,4.90
2023-04-15T05:16:39.721Z,4.90
2023-04-15T05:19:07.825Z,5.00
2023-04-15T05:21:34.793Z,5.00
2023-04-15T05:24:01.754Z,5.10
2023-04-15T05:26:29.179Z,5.20
2023-04-15T05:28:56.118Z,5.20
2023-04-15T05:31:23.530Z,5.20
2023-04-15T05:33:50.651Z,5.30
2023-04-15T05:36:17.790Z,5.30
2023-04-15T05:38:44.750Z,5.40
2023-04-15T05:41:11.702Z,5.40
2023-04-15T05:43:38.645Z,5.50
2023-04-15T05:46:05.724Z,5.50
2023-04-15T05:48:32.695Z,5.50
2023-04-15T05:50:59.663Z,5.60
2023-04-15T05:53:26.730Z,5.60
2023-04-15T05:55:53.682Z,5.60
2023-04-15T05:58:20.821Z,5.60
2023-04-15T06:00:47.817Z,5.60
2023-04-15T06:03:14.729Z,5.70
2023-04-15T06:05:41.738Z,5.70
2023-04-15T06:08:08.679Z,5.80
2023-04-15T06:10:36.861Z,5.90
2023-04-15T06:13:04.394Z,5.90
2023-04-15T06:15:31.842Z,6.00
2023-04-15T06:17:59.898Z,6.00
2023-04-15T06:20:26.816Z,6.10
2023-04-15T06:22:53.881Z,6.10
2023-04-15T06:25:20.865Z,6.10
2023-04-15T06:27:48.446Z,6.20
2023-04-15T06:30:15.587Z,6.30
2023-04-15T06:32:42.821Z,6.30
2023-04-15T06:35:10.437Z,6.40
2023-04-15T06:37:37.595Z,6.50
2023-04-15T06:40:05.360Z,6.60
2023-04-15T06:42:32.767Z,6.70
2023-04-15T06:44:59.671Z,6.80
2023-04-15T06:47:26.853Z,6.90
2023-04-15T06:49:57.084Z,6.90
2023-04-15T06:52:24.021Z,7.00
2023-04-15T06:54:51.283Z,7.10
2023-04-15T06:57:18.234Z,7.30
2023-04-15T06:59:45.575Z,7.50
2023-04-15T07:02:13.514Z,7.70
2023-04-15T07:04:40.904Z,7.80
2023-04-15T07:07:08.446Z,8.00
2023-04-15T07:09:35.468Z,8.20
2023-04-15T07:12:02.941Z,8.30
2023-04-15T07:14:30.140Z,8.50
2023-04-15T07:16:57.743Z,8.60
2023-04-15T07:19:24.788Z,8.70
2023-04-15T07:21:52.007Z,8.80
2023-04-15T07:24:20.205Z,8.80
2023-04-15T07:26:47.318Z,8.80
2023-04-15T07:29:14.221Z,8.80
2023-04-15T07:31:42.485Z,9.00
2023-04-15T07:34:10.356Z,9.20
2023-04-15T07:36:39.753Z,9.40
2023-04-15T07:39:06.705Z,9.70
2023-04-15T07:41:33.952Z,9.80
2023-04-15T07:44:00.953Z,9.90
2023-04-15T07:46:28.581Z,9.80
2023-04-15T07:48:55.727Z,9.90
2023-04-15T07:51:23.682Z,10.00
2023-04-15T07:53:50.973Z,9.90
2023-04-15T07:56:20.226Z,9.90
2023-04-15T07:58:47.173Z,10.00
2023-04-15T08:01:14.252Z,10.00
2023-04-15T08:03:41.534Z,10.00
2023-04-15T08:06:08.657Z,10.20
2023-04-15T08:08:36.047Z,10.50
2023-04-15T08:11:03.034Z,10.50
2023-04-15T08:13:30.075Z,10.30
2023-04-15T08:16:26.967Z,10.20
2023-04-15T08:18:56.017Z,10.00
2023-04-15T08:21:23.023Z,9.90
2023-04-15T08:23:52.460Z,9.80
2023-04-15T08:26:22.492Z,9.60
2023-04-15T08:28:50.080Z,9.40
2023-04-15T08:31:19.259Z,9.40
2023-04-15T08:33:50.517Z,9.40
2023-04-15T08:36:17.862Z,9.40
2023-04-15T08:38:45.786Z,9.50
2023-04-15T08:41:20.757Z,9.40
2023-04-15T08:43:53.915Z,9.40
2023-04-15T08:46:22.059Z,9.40
2023-04-15T08:48:49.672Z,9.40
2023-04-15T08:51:19.979Z,9.30
2023-04-15T08:53:47.626Z,9.30
2023-04-15T08:56:16.969Z,9.30
2023-04-15T08:58:49.849Z,9.20
2023-04-15T09:01:17.565Z,9.30
2023-04-15T09:03:44.890Z,9.40
2023-04-15T09:06:12.432Z,9.50
2023-04-15T09:08:39.351Z,9.70
2023-04-15T09:11:06.653Z,9.90
2023-04-15T09:13:33.957Z,9.80
2023-04-15T09:16:06.637Z,9.80
2023-04-15T09:18:35.196Z,9.90
2023-04-15T09:21:15.392Z,9.80
2023-04-15T09:23:57.890Z,9.70
2023-04-15T09:26:45.200Z,9.60
2023-04-15T09:29:15.499Z,9.60
2023-04-15T09:31:43.904Z,9.60
2023-04-15T09:34:11.533Z,9.50
2023-04-15T09:36:57.182Z,9.40
2023-04-15T09:39:24.461Z,9.30
2023-04-15T09:42:07.699Z,9.30
2023-04-15T09:44:34.846Z,9.20
2023-04-15T09:47:03.296Z,9.20
2023-04-15T09:49:30.390Z,9.20
2023-04-15T09:52:05.782Z,9.30
2023-04-15T09:54:35.735Z,9.40
2023-04-15T09:57:10.450Z,9.50
2023-04-15T09:59:37.463Z,9.40
2023-04-15T10:02:08.582Z,9.30
2023-04-15T10:04:44.208Z,9.30
2023-04-15T10:07:12.853Z,9.40
2023-04-15T10:09:40.442Z,9.30
2023-04-15T10:12:08.114Z,9.20
2023-04-15T10:14:38.891Z,9.20
2023-04-15T10:17:07.740Z,9.20
2023-04-15T10:19:38.133Z,9.20
2023-04-15T10:22:05.431Z,9.20
2023-04-15T10:24:33.201Z,9.20
2023-04-15T10:27:01.048Z,9.20
2023-04-15T10:29:28.425Z,9.20
2023-04-15T10:31:57.176Z,9.20
2023-04-15T10:34:25.856Z,9.20
2023-04-15T10:36:57.496Z,9.20
2023-04-15T10:39:41.764Z,9.20
2023-04-15T10:42:14.126Z,9.20
2023-04-15T10:44:43.770Z,9.20
2023-04-15T10:47:19.729Z,9.30
2023-04-15T10:49:58.416Z,9.30
2023-04-15T10:52:27.692Z,9.20
2023-04-15T10:55:20.000Z,9.10
2023-04-15T10:57:47.104Z,9.00
2023-04-15T11:00:19.255Z,8.90
2023-04-15T11:02:56.911Z,8.90
2023-04-15T11:05:51.152Z,8.90
2023-04-15T11:08:18.943Z,8.90
2023-04-15T11:10:54.964Z,9.00
2023-04-15T11:13:23.729Z,9.00
2023-04-15T11:15:52.036Z,9.00
2023-04-15T11:18:30.803Z,9.00
2023-04-15T11:21:00.544Z,9.00
2023-04-15T11:23:39.282Z,8.90
2023-04-15T11:26:12.359Z,8.90
2023-04-15T11:28:41.921Z,8.90
2023-04-15T11:31:12.139Z,8.90
2023-04-15T11:33:57.518Z,8.80
2023-04-15T11:36:27.338Z,8.80
2023-04-15T11:38:54.392Z,8.80
2023-04-15T11:41:24.808Z,8.80
2023-04-15T11:43:52.425Z,8.80
2023-04-15T11:46:19.665Z,8.70
2023-04-15T11:48:47.598Z,8.70
2023-04-15T11:51:15.047Z,8.70
2023-04-15T11:53:50.276Z,8.70
2023-04-15T11:56:23.239Z,8.70
2023-04-15T11:58:57.136Z,8.70
2023-04-15T12:01:42.031Z,8.70
2023-04-15T12:04:14.352Z,8.70
2023-04-15T12:06:41.780Z,8.80
2023-04-15T12:09:13.644Z,8.80
2023-04-15T12:11:48.371Z,8.80
2023-04-15T12:14:34.371Z,8.80
2023-04-15T12:17:03.159Z,8.80
2023-04-15T12:19:42.079Z,8.80
2023-04-15T12:22:17.243Z,8.80
2023-04-15T12:24:48.181Z,8.80
2023-04-15T12:27:16.860Z,8.90
2023-04-15T12:29:44.054Z,8.90
2023-04-15T12:32:19.999Z,8.80
2023-04-15T12:34:50.803Z,8.90
2023-04-15T12:37:21.067Z,8.90
2023-04-15T12:39:50.056Z,8.90
2023-04-15T12:42:18.092Z,8.90
2023-04-15T12:44:45.243Z,8.90
2023-04-15T12:47:13.392Z,9.00
2023-04-15T12:49:41.356Z,9.00
2023-04-15T12:52:08.644Z,9.10
2023-04-15T12:54:36.557Z,9.10
2023-04-15T12:57:06.824Z,9.20
2023-04-15T12:59:34.830Z,9.20
2023-04-15T13:02:03.383Z,9.10
2023-04-15T13:04:31.327Z,9.20
2023-04-15T13:06:58.507Z,9.20
2023-04-15T13:09:25.934Z,9.30
2023-04-15T13:11:53.128Z,9.30
2023-04-15T13:14:20.593Z,9.30
2023-04-15T13:16:47.537Z,9.40
2023-04-15T13:19:15.089Z,9.40
2023-04-15T13:21:43.129Z,9.40
2023-04-15T13:24:10.167Z,9.50
2023-04-15T13:26:37.904Z,9.50
2023-04-15T13:29:05.134Z,9.50
2023-04-15T13:34:00.301Z,9.40
2023-04-15T13:36:27.629Z,9.40
2023-04-15T13:38:54.720Z,9.30
2023-04-15T13:41:22.048Z,9.30
2023-04-15T13:43:49.006Z,9.30
2023-04-15T13:46:16.179Z,9.20
2023-04-15T13:48:43.276Z,9.20
2023-04-15T13:51:10.182Z,9.20
2023-04-15T13:53:39.038Z,9.20
2023-04-15T13:56:10.000Z,9.20
2023-04-15T13:58:38.005Z,9.20
2023-04-15T14:01:07.407Z,9.20
2023-04-15T14:03:38.627Z,9.20
2023-04-15T14:06:06.526Z,9.20
2023-04-15T14:08:33.777Z,9.10
2023-04-15T14:11:00.930Z,9.10
2023-04-15T14:13:27.953Z,9.10
2023-04-15T14:15:54.967Z,9.00
2023-04-15T14:18:22.058Z,9.00
2023-04-15T14:20:49.128Z,8.90
2023-04-15T14:23:16.297Z,8.90
2023-04-15T14:25:44.147Z,8.80
2023-04-15T14:28:11.990Z,8.80
2023-04-15T14:30:40.718Z,8.80
2023-04-15T14:33:07.888Z,8.70
2023-04-15T14:35:35.202Z,8.70
2023-04-15T14:38:02.260Z,8.60
2023-04-15T14:40:29.223Z,8.60
2023-04-15T14:42:56.250Z,8.50
2023-04-15T14:45:23.297Z,8.50
2023-04-15T14:47:50.627Z,8.50
2023-04-15T14:50:17.784Z,8.50
2023-04-15T14:52:44.799Z,8.50
2023-04-15T14:55:12.982Z,8.50
2023-04-15T14:57:41.492Z,8.50
2023-04-15T15:00:10.681Z,8.50
2023-04-15T15:02:40.732Z,8.50
2023-04-15T15:05:09.049Z,8.50
2023-04-15T15:07:37.410Z,8.40
2023-04-15T15:10:05.048Z,8.40
2023-04-15T15:12:32.946Z,8.40
2023-04-15T15:15:01.584Z,8.40
2023-04-15T15:17:30.272Z,8.40
2023-04-15T15:19:57.498Z,8.40
2023-04-15T15:22:27.594Z,8.40
2023-04-15T15:24:54.595Z,8.40
2023-04-15T15:27:21.649Z,8.40
2023-04-15T15:29:49.111Z,8.40
2023-04-15T15:32:16.470Z,8.40
2023-04-15T15:34:43.850Z,8.40
2023-04-15T15:37:10.913Z,8.40
2023-04-15T15:39:37.845Z,8.40
2023-04-15T15:42:04.918Z,8.40
2023-04-15T15:44:33.495Z,8.30
2023-04-15T15:47:01.524Z,8.30
2023-04-15T15:49:29.105Z,8.30
2023-04-15T15:51:57.699Z,8.30
2023-04-15T15:54:25.219Z,8.30
2023-04-15T15:56:52.229Z,8.30
2023-04-15T15:59:19.215Z,8.30
2023-04-15T16:01:46.386Z,8.30
2023-04-15T16:04:13.877Z,8.30
2023-04-15T16:06:41.456Z,8.30
2023-04-15T16:09:08.481Z,8.30
2023-04-15T16:11:35.507Z,8.30
2023-04-15T16:14:02.738Z,8.30
2023-04-15T16:16:30.246Z,8.30
2023-04-15T16:19:02.522Z,8.20
2023-04-15T16:21:29.765Z,8.30
2023-04-15T16:23:56.746Z,8.30
2023-04-15T16:26:24.006Z,8.20
2023-04-15T16:28:50.977Z,8.30
2023-04-15T16:31:18.173Z,8.30
2023-04-15T16:33:45.493Z,8.30
2023-04-15T16:36:12.525Z,8.30
2023-04-15T16:38:39.461Z,8.30
2023-04-15T16:41:06.440Z,8.30
2023-04-15T16:43:33.377Z,8.30
2023-04-15T16:46:00.424Z,8.30
2023-04-15T16:48:27.563Z,8.30
2023-04-15T16:50:54.587Z,8.30
2023-04-15T16:53:21.580Z,8.30
2023-04-15T16:55:48.561Z,8.30
2023-04-15T16:58:15.662Z,8.30
2023-04-15T17:00:42.801Z,8.20
2023-04-15T17:03:09.989Z,8.20
2023-04-15T17:05:37.141Z,8.20
2023-04-15T17:08:05.289Z,8.20
2023-04-15T17:10:32.258Z,8.20
2023-04-15T17:12:59.600Z,8.20
2023-04-15T17:15:27.430Z,8.20
2023-04-15T17:17:54.605Z,8.20
2023-04-15T17:20:21.949Z,8.20
2023-04-15T17:22:49.131Z,8.20
2023-04-15T17:25:16.160Z,8.20
2023-04-15T17:27:43.184Z,8.10
2023-04-15T17:30:10.854Z,8.20
2023-04-15T17:32:40.318Z,8.10
2023-04-15T17:35:08.440Z,8.10
2023-04-15T17:37:35.960Z,8.10
2023-04-15T17:40:04.352Z,8.10
2023-04-15T17:42:32.447Z,8.10
2023-04-15T17:44:59.420Z,8.10
2023-04-15T17:47:26.357Z,8.10
2023-04-15T17:49:53.333Z,8.00
2023-04-15T17:52:20.350Z,8.00
2023-04-15T17:54:47.340Z,8.00
2023-04-15T17:57:14.336Z,8.00
2023-04-15T17:59:44.199Z,8.00
2023-04-15T18:02:11.832Z,8.00
2023-04-15T18:04:39.641Z,8.00
2023-04-15T18:07:06.955Z,8.00
2023-04-15T18:09:34.082Z,8.00
2023-04-15T18:12:02.179Z,8.00
2023-04-15T18:14:34.521Z,8.00
2023-04-15T18:17:03.332Z,8.00
2023-04-15T18:19:30.957Z,8.00
2023-04-15T18:22:00.576Z,8.00
2023-04-15T18:24:28.187Z,8.00
2023-04-15T18:26:55.259Z,8.00
2023-04-15T18:29:22.439Z,8.00
2023-04-15T18:31:49.606Z,8.00
2023-04-15T18:34:18.544Z,8.00
2023-04-15T18:36:46.293Z,8.00
2023-04-15T18:39:13.262Z,8.00
2023-04-15T18:41:40.192Z,8.00
2023-04-15T18:44:07.215Z,8.00
2023-04-15T18:46:34.350Z,8.00
2023-04-15T18:49:01.639Z,8.00
2023-04-15T18:51:28.539Z,8.00
2023-04-15T18:53:55.793Z,8.00
2023-04-15T18:56:23.867Z,8.00
2023-04-15T18:59:26.981Z,7.90
2023-04-15T19:01:37.897Z,7.90
2023-04-15T19:04:05.159Z,8.00
2023-04-15T19:06:32.473Z,8.00
2023-04-15T19:08:59.656Z,7.90
2023-04-15T19:11:26.652Z,7.90
2023-04-15T19:13:53.864Z,7.90
2023-04-15T19:16:21.165Z,7.90
2023-04-15T19:18:48.208Z,7.90
2023-04-15T19:21:16.142Z,7.90
2023-04-15T19:23:43.277Z,7.90
2023-04-15T19:26:11.805Z,7.90
2023-04-15T19:28:38.823Z,7.90
2023-04-15T19:31:06.151Z,7.90
2023-04-15T19:33:35.476Z,7.90
2023-04-15T19:36:04.409Z,7.90
2023-04-15T19:38:32.319Z,7.90
2023-04-15T19:40:59.420Z,7.90
2023-04-15T19:43:26.656Z,7.90
2023-04-15T19:45:54.970Z,8.00
2023-04-15T19:48:23.306Z,7.90
2023-04-15T19:50:50.599Z,7.90
2023-04-15T19:53:17.618Z,7.90
2023-04-15T19:55:44.690Z,7.90
2023-04-15T19:58:11.823Z,7.90
2023-04-15T20:00:38.979Z,7.90
2023-04-15T20:03:06.287Z,8.00
2023-04-15T20:05:33.383Z,7.90
2023-04-15T20:08:01.901Z,7.90
2023-04-15T20:10:28.964Z,7.90
2023-04-15T20:12:55.999Z,7.90
2023-04-15T20:15:24.093Z,8.00
2023-04-15T20:17:51.579Z,8.00
2023-04-15T20:20:18.791Z,7.90
2023-04-15T20:22:45.773Z,8.00
2023-04-15T20:25:12.923Z,8.00
2023-04-15T20:27:40.096Z,7.90
2023-04-15T20:30:08.013Z,8.00
2023-04-15T20:32:36.207Z,8.00
2023-04-15T20:35:07.706Z,8.00
2023-04-15T20:37:34.728Z,8.00
2023-04-15T20:40:02.533Z,8.00
2023-04-15T20:42:34.481Z,8.00
2023-04-15T20:45:02.268Z,8.00
2023-04-15T20:47:29.771Z,8.00
2023-04-15T20:49:56.953Z,8.00
2023-04-15T20:52:23.919Z,8.00
2023-04-15T20:54:51.384Z,8.00
2023-04-15T20:57:18.506Z,8.00
2023-04-15T20:59:45.418Z,8.00
2023-04-15T21:02:12.491Z,8.00
2023-04-15T21:04:39.526Z,8.00
2023-04-15T21:07:06.699Z,8.00
2023-04-15T21:09:33.688Z,8.00
2023-04-15T21:12:02.174Z,8.00
2023-04-15T21:14:29.891Z,8.00
2023-04-15T21:16:59.733Z,8.00
2023-04-15T21:19:26.636Z,8.00
2023-04-15T21:21:56.611Z,8.00
2023-04-15T21:24:23.556Z,8.00
2023-04-15T21:26:50.578Z,8.00
2023-04-15T21:29:17.567Z,8.00
2023-04-15T21:31:44.761Z,8.00
2023-04-15T21:34:12.143Z,8.00
2023-04-15T21:36:39.320Z,8.00
2023-04-15T21:39:08.952Z,8.00
2023-04-15T21:41:37.198Z,8.00
2023-04-15T21:44:04.761Z,8.00
2023-04-15T21:46:32.761Z,8.00
2023-04-15T21:49:00.397Z,8.00
2023-04-15T21:51:27.866Z,8.00
2023-04-15T21:53:54.855Z,8.00
2023-04-15T21:56:24.346Z,8.00
2023-04-15T21:58:54.350Z,8.00
2023-04-15T22:01:21.510Z,8.00
2023-04-15T22:03:48.685Z,8.00
2023-04-15T22:06:15.939Z,8.00
2023-04-15T22:08:55.106Z,7.90
2023-04-15T22:11:27.409Z,7.90
2023-04-15T22:13:55.094Z,7.90
2023-04-15T22:16:22.236Z,7.90
2023-04-15T22:18:49.269Z,7.90
2023-04-15T22:21:16.481Z,7.90
2023-04-15T22:23:47.544Z,7.90
2023-04-15T22:26:14.881Z,7.90
2023-04-15T22:28:42.293Z,7.90
2023-04-15T22:31:09.821Z,7.90
2023-04-15T22:33:37.152Z,8.00
2023-04-15T22:36:04.297Z,8.00
2023-04-15T22:38:31.431Z,7.90
2023-04-15T22:40:58.571Z,8.00
2023-04-15T22:43:26.190Z,7.90
2023-04-15T22:45:55.126Z,8.00
2023-04-15T22:48:23.238Z,8.00
2023-04-15T22:50:50.383Z,8.00
2023-04-15T22:53:17.898Z,8.00
2023-04-15T22:55:46.709Z,8.00
2023-04-15T22:58:14.106Z,8.00
2023-04-15T23:00:41.040Z,8.00
2023-04-15T23:03:08.426Z,8.00
2023-04-15T23:05:35.565Z,8.00
2023-04-15T23:08:02.586Z,8.00
2023-04-15T23:10:29.858Z,8.00
2023-04-15T23:12:56.780Z,8.00
2023-04-15T23:15:23.703Z,8.00
2023-04-15T23:17:50.839Z,8.00
2023-04-15T23:20:17.923Z,8.00
2023-04-15T23:22:45.219Z,8.00
2023-04-15T23:25:12.218Z,8.00
2023-04-15T23:27:39.115Z,8.00
2023-04-15T23:30:07.486Z,8.00
2023-04-15T23:32:35.170Z,8.00
2023-04-15T23:35:02.161Z,8.00
2023-04-15T23:37:30.628Z,8.00
2023-04-15T23:39:57.589Z,8.00
2023-04-15T23:42:24.793Z,8.00
2023-04-15T23:44:51.744Z,8.00
2023-04-15T23:47:18.756Z,8.00
2023-04-15T23:49:45.769Z,8.00
2023-04-15T23:52:12.713Z,8.00
2023-04-15T23:54:40.171Z,8.00
2023-04-15T23:57:07.062Z,8.00
2023-04-15T23:59:34.034Z,8.00
